Main page
METAR-TAF:

METAR-TAF

Airports :

Brasília International Airport

Brasília, Brazilian Federal District, Brazil

latitude: 15-52S, longitude: 047-56W, elevation: 1061 m

Current weather observation

The report was made 1 hour and 0 minutes ago, at 09:00 UTC
Wind 3 kt from the West/Southwest
Temperature 10°C
Humidity 87%
Pressure 1021 hPa
Visibility 10 km or more
no clouds below 1500 m and no cumulonimbus

METAR: SBBR 230900Z 25003KT CAVOK 10/08 Q1021

Time: 07:00 (10:00 UTC)

Forecast

The report was made 6 hours and 0 minutes ago, at 04:00 UTC
Forecast valid from 23 at 06 UTC to 24 at 06 UTC
Wind 5 kt from the East/Northeast
Visibility 10 km or more
no clouds below 1500 m and no cumulonimbus
Becoming
from 23 at 17 UTC to 23 at 19 UTC
Wind 5 kt from the East
Becoming
from 24 at 00 UTC to 24 at 02 UTC
Wind 5 kt from the South

TAF: SBBR 230400Z 2306/2406 06005KT CAVOK TN11/2307Z TX26/2317Z BECMG 2317/2319 09005KT BECMG 2400/2402 19005KT RMK PDB

Weather observations and forecasts of more than 4000 airports (METAR and TAF reports).

The available stations are represented by yellow and red dots on the map.

Hover mouse over dot to see the name of the station.

Then click to see weather observations and forecasts.

To change the map : click on the green buttons with a black cross to zoom in, on the green button with a dash to zoom out, or on the green arrows for adjacent maps.


METAR-TAF: